sensor_id;sensor_type;location;lat;lon;timestamp;P1;durP1;ratioP1;P2;durP2;ratioP2
6282;SDS011;3174;53.486;9.568;2023-02-13T00:00:56;10.40;;;5.17;;
6282;SDS011;3174;53.486;9.568;2023-02-13T00:03:25;9.00;;;5.30;;
6282;SDS011;3174;53.486;9.568;2023-02-13T00:05:53;8.47;;;4.83;;
6282;SDS011;3174;53.486;9.568;2023-02-13T00:08:21;9.27;;;5.00;;
6282;SDS011;3174;53.486;9.568;2023-02-13T00:10:49;10.03;;;5.07;;
6282;SDS011;3174;53.486;9.568;2023-02-13T00:13:17;9.77;;;5.20;;
6282;SDS011;3174;53.486;9.568;2023-02-13T00:15:53;9.43;;;4.90;;
6282;SDS011;3174;53.486;9.568;2023-02-13T00:18:22;11.67;;;5.13;;
6282;SDS011;3174;53.486;9.568;2023-02-13T00:20:56;8.27;;;4.70;;
6282;SDS011;3174;53.486;9.568;2023-02-13T00:23:25;8.57;;;4.90;;
6282;SDS011;3174;53.486;9.568;2023-02-13T00:25:53;11.03;;;5.40;;
6282;SDS011;3174;53.486;9.568;2023-02-13T00:28:21;9.33;;;5.23;;
6282;SDS011;3174;53.486;9.568;2023-02-13T00:30:50;8.50;;;4.80;;
6282;SDS011;3174;53.486;9.568;2023-02-13T00:33:18;9.40;;;5.17;;
6282;SDS011;3174;53.486;9.568;2023-02-13T00:35:46;7.83;;;4.57;;
6282;SDS011;3174;53.486;9.568;2023-02-13T00:38:14;10.57;;;4.87;;
6282;SDS011;3174;53.486;9.568;2023-02-13T00:40:42;8.13;;;4.90;;
6282;SDS011;3174;53.486;9.568;2023-02-13T00:43:10;15.23;;;5.77;;
6282;SDS011;3174;53.486;9.568;2023-02-13T00:45:38;10.63;;;5.10;;
6282;SDS011;3174;53.486;9.568;2023-02-13T00:48:07;8.03;;;4.67;;
6282;SDS011;3174;53.486;9.568;2023-02-13T00:50:35;8.03;;;4.73;;
6282;SDS011;3174;53.486;9.568;2023-02-13T00:53:03;11.07;;;5.10;;
6282;SDS011;3174;53.486;9.568;2023-02-13T00:55:31;9.03;;;4.53;;
6282;SDS011;3174;53.486;9.568;2023-02-13T00:58:00;8.20;;;4.77;;
6282;SDS011;3174;53.486;9.568;2023-02-13T01:00:28;8.60;;;4.13;;
6282;SDS011;3174;53.486;9.568;2023-02-13T01:02:56;10.17;;;5.07;;
6282;SDS011;3174;53.486;9.568;2023-02-13T01:05:26;7.17;;;4.90;;
6282;SDS011;3174;53.486;9.568;2023-02-13T01:07:54;8.30;;;4.63;;
6282;SDS011;3174;53.486;9.568;2023-02-13T01:10:22;8.73;;;5.10;;
6282;SDS011;3174;53.486;9.568;2023-02-13T01:12:50;7.27;;;4.13;;
6282;SDS011;3174;53.486;9.568;2023-02-13T01:15:18;8.37;;;4.30;;
6282;SDS011;3174;53.486;9.568;2023-02-13T01:17:46;10.03;;;4.30;;
6282;SDS011;3174;53.486;9.568;2023-02-13T01:20:14;7.23;;;4.13;;
6282;SDS011;3174;53.486;9.568;2023-02-13T01:22:44;10.43;;;4.67;;
6282;SDS011;3174;53.486;9.568;2023-02-13T01:25:12;8.33;;;4.03;;
6282;SDS011;3174;53.486;9.568;2023-02-13T01:27:40;8.87;;;4.67;;
6282;SDS011;3174;53.486;9.568;2023-02-13T01:30:08;6.70;;;4.63;;
6282;SDS011;3174;53.486;9.568;2023-02-13T01:32:39;8.70;;;4.30;;
6282;SDS011;3174;53.486;9.568;2023-02-13T01:35:08;10.40;;;4.80;;
6282;SDS011;3174;53.486;9.568;2023-02-13T01:37:36;9.60;;;4.73;;
6282;SDS011;3174;53.486;9.568;2023-02-13T01:40:07;9.67;;;4.40;;
6282;SDS011;3174;53.486;9.568;2023-02-13T01:42:36;9.13;;;4.83;;
6282;SDS011;3174;53.486;9.568;2023-02-13T01:45:05;10.17;;;4.53;;
6282;SDS011;3174;53.486;9.568;2023-02-13T01:47:45;17.10;;;4.90;;
6282;SDS011;3174;53.486;9.568;2023-02-13T01:50:15;9.03;;;4.67;;
6282;SDS011;3174;53.486;9.568;2023-02-13T01:52:46;9.33;;;4.30;;
6282;SDS011;3174;53.486;9.568;2023-02-13T01:55:16;6.60;;;4.47;;
6282;SDS011;3174;53.486;9.568;2023-02-13T01:57:45;7.03;;;4.50;;
6282;SDS011;3174;53.486;9.568;2023-02-13T02:00:17;7.00;;;4.33;;
6282;SDS011;3174;53.486;9.568;2023-02-13T02:02:47;10.17;;;4.90;;
6282;SDS011;3174;53.486;9.568;2023-02-13T02:05:17;8.90;;;4.87;;
6282;SDS011;3174;53.486;9.568;2023-02-13T02:07:46;6.27;;;4.10;;
6282;SDS011;3174;53.486;9.568;2023-02-13T02:10:17;8.67;;;4.07;;
6282;SDS011;3174;53.486;9.568;2023-02-13T02:12:46;7.27;;;4.87;;
6282;SDS011;3174;53.486;9.568;2023-02-13T02:15:17;6.80;;;4.13;;
6282;SDS011;3174;53.486;9.568;2023-02-13T02:17:45;8.67;;;4.43;;
6282;SDS011;3174;53.486;9.568;2023-02-13T02:20:16;7.30;;;4.17;;
6282;SDS011;3174;53.486;9.568;2023-02-13T02:23:03;8.23;;;4.33;;
6282;SDS011;3174;53.486;9.568;2023-02-13T02:25:45;9.07;;;5.00;;
6282;SDS011;3174;53.486;9.568;2023-02-13T02:28:44;7.80;;;4.63;;
6282;SDS011;3174;53.486;9.568;2023-02-13T02:34:49;6.97;;;3.90;;
6282;SDS011;3174;53.486;9.568;2023-02-13T02:37:28;8.60;;;4.50;;
6282;SDS011;3174;53.486;9.568;2023-02-13T02:40:07;7.47;;;4.30;;
6282;SDS011;3174;53.486;9.568;2023-02-13T02:42:49;6.23;;;3.77;;
6282;SDS011;3174;53.486;9.568;2023-02-13T02:45:25;8.00;;;4.83;;
6282;SDS011;3174;53.486;9.568;2023-02-13T02:47:58;8.47;;;5.17;;
6282;SDS011;3174;53.486;9.568;2023-02-13T02:50:45;7.77;;;4.20;;
6282;SDS011;3174;53.486;9.568;2023-02-13T02:53:22;10.83;;;4.50;;
6282;SDS011;3174;53.486;9.568;2023-02-13T02:55:57;7.87;;;4.50;;
6282;SDS011;3174;53.486;9.568;2023-02-13T02:58:32;9.27;;;5.17;;
6282;SDS011;3174;53.486;9.568;2023-02-13T03:01:20;10.93;;;5.27;;
6282;SDS011;3174;53.486;9.568;2023-02-13T03:04:12;9.27;;;5.27;;
6282;SDS011;3174;53.486;9.568;2023-02-13T03:07:01;9.57;;;4.73;;
6282;SDS011;3174;53.486;9.568;2023-02-13T03:09:33;8.17;;;4.47;;
6282;SDS011;3174;53.486;9.568;2023-02-13T03:12:21;7.83;;;4.23;;
6282;SDS011;3174;53.486;9.568;2023-02-13T03:15:07;9.13;;;5.00;;
6282;SDS011;3174;53.486;9.568;2023-02-13T03:17:36;9.97;;;4.37;;
6282;SDS011;3174;53.486;9.568;2023-02-13T03:23:14;7.73;;;4.00;;
6282;SDS011;3174;53.486;9.568;2023-02-13T03:25:52;7.67;;;4.27;;
6282;SDS011;3174;53.486;9.568;2023-02-13T03:28:32;9.33;;;5.40;;
6282;SDS011;3174;53.486;9.568;2023-02-13T03:31:23;11.13;;;4.97;;
6282;SDS011;3174;53.486;9.568;2023-02-13T03:33:57;7.17;;;4.20;;
6282;SDS011;3174;53.486;9.568;2023-02-13T03:36:31;7.10;;;4.10;;
6282;SDS011;3174;53.486;9.568;2023-02-13T03:39:19;10.43;;;5.27;;
6282;SDS011;3174;53.486;9.568;2023-02-13T03:41:51;12.50;;;5.47;;
6282;SDS011;3174;53.486;9.568;2023-02-13T03:44:23;10.73;;;4.67;;
6282;SDS011;3174;53.486;9.568;2023-02-13T03:46:56;7.93;;;4.77;;
6282;SDS011;3174;53.486;9.568;2023-02-13T03:49:27;6.87;;;3.90;;
6282;SDS011;3174;53.486;9.568;2023-02-13T03:52:18;7.23;;;4.40;;
6282;SDS011;3174;53.486;9.568;2023-02-13T03:54:51;7.43;;;4.37;;
6282;SDS011;3174;53.486;9.568;2023-02-13T03:57:39;10.80;;;5.80;;
6282;SDS011;3174;53.486;9.568;2023-02-13T04:00:26;7.87;;;4.00;;
6282;SDS011;3174;53.486;9.568;2023-02-13T04:02:56;8.47;;;4.07;;
6282;SDS011;3174;53.486;9.568;2023-02-13T04:05:27;8.80;;;4.67;;
6282;SDS011;3174;53.486;9.568;2023-02-13T04:07:57;11.00;;;5.67;;
6282;SDS011;3174;53.486;9.568;2023-02-13T04:10:26;13.10;;;5.90;;
6282;SDS011;3174;53.486;9.568;2023-02-13T04:12:56;8.87;;;4.80;;
6282;SDS011;3174;53.486;9.568;2023-02-13T04:15:30;8.33;;;4.83;;
6282;SDS011;3174;53.486;9.568;2023-02-13T04:18:02;10.60;;;5.13;;
6282;SDS011;3174;53.486;9.568;2023-02-13T04:20:36;6.27;;;4.00;;
6282;SDS011;3174;53.486;9.568;2023-02-13T04:23:06;7.43;;;3.67;;
6282;SDS011;3174;53.486;9.568;2023-02-13T04:25:35;9.57;;;4.43;;
6282;SDS011;3174;53.486;9.568;2023-02-13T04:28:04;10.87;;;5.93;;
6282;SDS011;3174;53.486;9.568;2023-02-13T04:30:32;10.00;;;5.43;;
6282;SDS011;3174;53.486;9.568;2023-02-13T04:33:00;10.27;;;5.43;;
6282;SDS011;3174;53.486;9.568;2023-02-13T04:35:28;8.73;;;4.83;;
6282;SDS011;3174;53.486;9.568;2023-02-13T04:37:56;8.03;;;4.07;;
6282;SDS011;3174;53.486;9.568;2023-02-13T04:40:25;9.33;;;5.60;;
6282;SDS011;3174;53.486;9.568;2023-02-13T04:42:53;21.13;;;9.57;;
6282;SDS011;3174;53.486;9.568;2023-02-13T04:45:21;9.17;;;5.50;;
6282;SDS011;3174;53.486;9.568;2023-02-13T04:47:49;12.70;;;5.83;;
6282;SDS011;3174;53.486;9.568;2023-02-13T04:50:18;13.77;;;5.77;;
6282;SDS011;3174;53.486;9.568;2023-02-13T04:52:47;14.57;;;6.40;;
6282;SDS011;3174;53.486;9.568;2023-02-13T04:55:16;8.57;;;4.97;;
6282;SDS011;3174;53.486;9.568;2023-02-13T04:57:46;12.20;;;5.97;;
6282;SDS011;3174;53.486;9.568;2023-02-13T05:00:14;12.23;;;5.87;;
6282;SDS011;3174;53.486;9.568;2023-02-13T05:02:42;11.23;;;6.23;;
6282;SDS011;3174;53.486;9.568;2023-02-13T05:05:10;14.57;;;7.03;;
6282;SDS011;3174;53.486;9.568;2023-02-13T05:07:38;8.87;;;4.63;;
6282;SDS011;3174;53.486;9.568;2023-02-13T05:10:07;7.93;;;4.87;;
6282;SDS011;3174;53.486;9.568;2023-02-13T05:12:36;10.70;;;6.27;;
6282;SDS011;3174;53.486;9.568;2023-02-13T05:15:06;12.53;;;7.23;;
6282;SDS011;3174;53.486;9.568;2023-02-13T05:17:34;13.40;;;6.03;;
6282;SDS011;3174;53.486;9.568;2023-02-13T05:20:02;13.00;;;6.33;;
6282;SDS011;3174;53.486;9.568;2023-02-13T05:22:30;12.33;;;6.43;;
6282;SDS011;3174;53.486;9.568;2023-02-13T05:25:16;12.83;;;6.67;;
6282;SDS011;3174;53.486;9.568;2023-02-13T05:27:44;12.50;;;6.10;;
6282;SDS011;3174;53.486;9.568;2023-02-13T05:30:14;15.97;;;7.53;;
6282;SDS011;3174;53.486;9.568;2023-02-13T05:32:42;10.27;;;5.67;;
6282;SDS011;3174;53.486;9.568;2023-02-13T05:35:10;14.23;;;7.43;;
6282;SDS011;3174;53.486;9.568;2023-02-13T05:37:38;16.60;;;7.47;;
6282;SDS011;3174;53.486;9.568;2023-02-13T05:40:06;12.60;;;6.07;;
6282;SDS011;3174;53.486;9.568;2023-02-13T05:42:35;8.67;;;4.30;;
6282;SDS011;3174;53.486;9.568;2023-02-13T05:45:03;8.70;;;4.97;;
6282;SDS011;3174;53.486;9.568;2023-02-13T05:47:33;15.60;;;6.23;;
6282;SDS011;3174;53.486;9.568;2023-02-13T05:50:01;9.17;;;4.90;;
6282;SDS011;3174;53.486;9.568;2023-02-13T05:52:29;11.07;;;6.10;;
6282;SDS011;3174;53.486;9.568;2023-02-13T05:54:57;15.53;;;6.60;;
6282;SDS011;3174;53.486;9.568;2023-02-13T05:57:25;14.43;;;6.63;;
6282;SDS011;3174;53.486;9.568;2023-02-13T05:59:53;11.57;;;6.57;;
6282;SDS011;3174;53.486;9.568;2023-02-13T06:02:21;12.13;;;6.67;;
6282;SDS011;3174;53.486;9.568;2023-02-13T06:04:51;14.00;;;6.30;;
6282;SDS011;3174;53.486;9.568;2023-02-13T06:07:19;11.73;;;6.23;;
6282;SDS011;3174;53.486;9.568;2023-02-13T06:09:46;10.30;;;5.27;;
6282;SDS011;3174;53.486;9.568;2023-02-13T06:12:14;12.37;;;7.13;;
6282;SDS011;3174;53.486;9.568;2023-02-13T06:14:42;15.33;;;8.43;;
6282;SDS011;3174;53.486;9.568;2023-02-13T06:17:10;14.60;;;7.13;;
6282;SDS011;3174;53.486;9.568;2023-02-13T06:19:38;13.10;;;6.50;;
6282;SDS011;3174;53.486;9.568;2023-02-13T06:22:07;15.37;;;7.10;;
6282;SDS011;3174;53.486;9.568;2023-02-13T06:24:37;12.57;;;6.43;;
6282;SDS011;3174;53.486;9.568;2023-02-13T06:27:04;14.23;;;7.17;;
6282;SDS011;3174;53.486;9.568;2023-02-13T06:29:32;14.23;;;6.93;;
6282;SDS011;3174;53.486;9.568;2023-02-13T06:32:00;14.07;;;6.47;;
6282;SDS011;3174;53.486;9.568;2023-02-13T06:34:28;11.60;;;6.37;;
6282;SDS011;3174;53.486;9.568;2023-02-13T06:36:56;12.17;;;5.57;;
6282;SDS011;3174;53.486;9.568;2023-02-13T06:39:25;20.53;;;7.97;;
6282;SDS011;3174;53.486;9.568;2023-02-13T06:41:53;15.20;;;7.13;;
6282;SDS011;3174;53.486;9.568;2023-02-13T06:44:21;14.23;;;7.87;;
6282;SDS011;3174;53.486;9.568;2023-02-13T06:46:49;19.03;;;7.70;;
6282;SDS011;3174;53.486;9.568;2023-02-13T06:49:18;14.33;;;7.10;;
6282;SDS011;3174;53.486;9.568;2023-02-13T06:51:46;14.57;;;7.93;;
6282;SDS011;3174;53.486;9.568;2023-02-13T06:54:14;15.17;;;7.23;;
6282;SDS011;3174;53.486;9.568;2023-02-13T06:56:43;12.17;;;6.50;;
6282;SDS011;3174;53.486;9.568;2023-02-13T06:59:11;16.97;;;7.40;;
6282;SDS011;3174;53.486;9.568;2023-02-13T07:01:39;13.67;;;6.63;;
6282;SDS011;3174;53.486;9.568;2023-02-13T07:04:07;17.73;;;7.73;;
6282;SDS011;3174;53.486;9.568;2023-02-13T07:06:35;15.63;;;7.30;;
6282;SDS011;3174;53.486;9.568;2023-02-13T07:09:03;15.40;;;7.50;;
6282;SDS011;3174;53.486;9.568;2023-02-13T07:11:31;15.50;;;8.93;;
6282;SDS011;3174;53.486;9.568;2023-02-13T07:14:00;15.23;;;8.37;;
6282;SDS011;3174;53.486;9.568;2023-02-13T07:16:28;16.50;;;7.87;;
6282;SDS011;3174;53.486;9.568;2023-02-13T07:18:56;16.83;;;8.60;;
6282;SDS011;3174;53.486;9.568;2023-02-13T07:21:24;17.57;;;8.13;;
6282;SDS011;3174;53.486;9.568;2023-02-13T07:23:52;14.23;;;7.80;;
6282;SDS011;3174;53.486;9.568;2023-02-13T07:26:20;22.27;;;10.23;;
6282;SDS011;3174;53.486;9.568;2023-02-13T07:28:48;18.83;;;8.03;;
6282;SDS011;3174;53.486;9.568;2023-02-13T07:31:36;20.47;;;8.57;;
6282;SDS011;3174;53.486;9.568;2023-02-13T07:34:05;11.03;;;5.63;;
6282;SDS011;3174;53.486;9.568;2023-02-13T07:36:33;16.07;;;7.93;;
6282;SDS011;3174;53.486;9.568;2023-02-13T07:39:01;11.00;;;5.67;;
6282;SDS011;3174;53.486;9.568;2023-02-13T07:41:29;15.77;;;7.20;;
6282;SDS011;3174;53.486;9.568;2023-02-13T07:43:57;16.13;;;7.77;;
6282;SDS011;3174;53.486;9.568;2023-02-13T07:46:25;19.43;;;8.63;;
6282;SDS011;3174;53.486;9.568;2023-02-13T07:48:55;16.27;;;7.87;;
6282;SDS011;3174;53.486;9.568;2023-02-13T07:51:23;21.83;;;9.17;;
6282;SDS011;3174;53.486;9.568;2023-02-13T07:53:51;16.40;;;8.17;;
6282;SDS011;3174;53.486;9.568;2023-02-13T07:56:21;18.77;;;8.20;;
6282;SDS011;3174;53.486;9.568;2023-02-13T07:58:49;14.10;;;7.57;;
6282;SDS011;3174;53.486;9.568;2023-02-13T08:01:17;17.13;;;7.63;;
6282;SDS011;3174;53.486;9.568;2023-02-13T08:03:46;11.17;;;6.43;;
6282;SDS011;3174;53.486;9.568;2023-02-13T08:06:18;12.43;;;6.07;;
6282;SDS011;3174;53.486;9.568;2023-02-13T08:08:47;17.97;;;7.77;;
6282;SDS011;3174;53.486;9.568;2023-02-13T08:11:35;19.83;;;8.37;;
6282;SDS011;3174;53.486;9.568;2023-02-13T08:14:20;11.97;;;6.60;;
6282;SDS011;3174;53.486;9.568;2023-02-13T08:16:48;17.77;;;8.23;;
6282;SDS011;3174;53.486;9.568;2023-02-13T08:19:16;20.00;;;9.03;;
6282;SDS011;3174;53.486;9.568;2023-02-13T08:21:45;19.63;;;8.47;;
6282;SDS011;3174;53.486;9.568;2023-02-13T08:24:13;20.03;;;8.23;;
6282;SDS011;3174;53.486;9.568;2023-02-13T08:26:41;18.93;;;8.37;;
6282;SDS011;3174;53.486;9.568;2023-02-13T08:29:09;18.17;;;8.03;;
6282;SDS011;3174;53.486;9.568;2023-02-13T08:31:37;17.80;;;7.77;;
6282;SDS011;3174;53.486;9.568;2023-02-13T08:34:05;20.00;;;8.13;;
6282;SDS011;3174;53.486;9.568;2023-02-13T08:36:33;22.20;;;9.10;;
6282;SDS011;3174;53.486;9.568;2023-02-13T08:39:03;26.30;;;12.60;;
6282;SDS011;3174;53.486;9.568;2023-02-13T08:41:31;23.73;;;10.73;;
6282;SDS011;3174;53.486;9.568;2023-02-13T08:43:58;18.27;;;8.27;;
6282;SDS011;3174;53.486;9.568;2023-02-13T08:46:26;25.47;;;11.80;;
6282;SDS011;3174;53.486;9.568;2023-02-13T08:48:54;18.77;;;9.10;;
6282;SDS011;3174;53.486;9.568;2023-02-13T08:51:22;18.00;;;7.97;;
6282;SDS011;3174;53.486;9.568;2023-02-13T08:53:50;17.13;;;7.20;;
6282;SDS011;3174;53.486;9.568;2023-02-13T08:56:20;24.50;;;9.83;;
6282;SDS011;3174;53.486;9.568;2023-02-13T08:58:48;22.60;;;8.63;;
6282;SDS011;3174;53.486;9.568;2023-02-13T09:01:17;15.00;;;7.30;;
6282;SDS011;3174;53.486;9.568;2023-02-13T09:03:45;15.63;;;8.07;;
6282;SDS011;3174;53.486;9.568;2023-02-13T09:06:13;19.80;;;9.90;;
6282;SDS011;3174;53.486;9.568;2023-02-13T09:08:41;22.53;;;9.97;;
6282;SDS011;3174;53.486;9.568;2023-02-13T09:11:09;19.30;;;8.20;;
6282;SDS011;3174;53.486;9.568;2023-02-13T09:13:38;12.67;;;6.80;;
6282;SDS011;3174;53.486;9.568;2023-02-13T09:16:06;15.13;;;7.73;;
6282;SDS011;3174;53.486;9.568;2023-02-13T09:18:35;17.63;;;8.07;;
6282;SDS011;3174;53.486;9.568;2023-02-13T09:21:04;21.63;;;9.97;;
6282;SDS011;3174;53.486;9.568;2023-02-13T09:23:34;19.73;;;9.80;;
6282;SDS011;3174;53.486;9.568;2023-02-13T09:26:04;20.00;;;9.13;;
6282;SDS011;3174;53.486;9.568;2023-02-13T09:28:33;17.33;;;8.10;;
6282;SDS011;3174;53.486;9.568;2023-02-13T09:31:05;21.23;;;8.63;;
6282;SDS011;3174;53.486;9.568;2023-02-13T09:33:34;21.47;;;9.90;;
6282;SDS011;3174;53.486;9.568;2023-02-13T09:36:03;20.47;;;9.30;;
6282;SDS011;3174;53.486;9.568;2023-02-13T09:38:32;25.17;;;10.67;;
6282;SDS011;3174;53.486;9.568;2023-02-13T09:41:01;22.00;;;10.47;;
6282;SDS011;3174;53.486;9.568;2023-02-13T09:43:31;22.43;;;10.13;;
6282;SDS011;3174;53.486;9.568;2023-02-13T09:46:06;19.00;;;9.20;;
6282;SDS011;3174;53.486;9.568;2023-02-13T09:48:39;23.60;;;11.07;;
6282;SDS011;3174;53.486;9.568;2023-02-13T09:51:09;16.57;;;8.03;;
6282;SDS011;3174;53.486;9.568;2023-02-13T09:53:41;20.90;;;10.40;;
6282;SDS011;3174;53.486;9.568;2023-02-13T09:56:14;29.27;;;10.83;;
6282;SDS011;3174;53.486;9.568;2023-02-13T09:58:43;19.67;;;10.00;;
6282;SDS011;3174;53.486;9.568;2023-02-13T10:01:22;20.17;;;7.80;;
6282;SDS011;3174;53.486;9.568;2023-02-13T10:03:56;27.93;;;12.20;;
6282;SDS011;3174;53.486;9.568;2023-02-13T10:06:35;24.47;;;10.10;;
6282;SDS011;3174;53.486;9.568;2023-02-13T10:09:17;22.90;;;10.93;;
6282;SDS011;3174;53.486;9.568;2023-02-13T10:11:54;21.97;;;9.77;;
6282;SDS011;3174;53.486;9.568;2023-02-13T10:14:31;19.30;;;9.07;;
6282;SDS011;3174;53.486;9.568;2023-02-13T10:17:06;24.70;;;9.57;;
6282;SDS011;3174;53.486;9.568;2023-02-13T10:19:39;22.97;;;10.47;;
6282;SDS011;3174;53.486;9.568;2023-02-13T10:22:09;16.80;;;8.87;;
6282;SDS011;3174;53.486;9.568;2023-02-13T10:24:41;15.83;;;7.87;;
6282;SDS011;3174;53.486;9.568;2023-02-13T10:27:16;16.97;;;7.63;;
6282;SDS011;3174;53.486;9.568;2023-02-13T10:29:47;19.97;;;8.70;;
6282;SDS011;3174;53.486;9.568;2023-02-13T10:32:44;22.33;;;10.33;;
6282;SDS011;3174;53.486;9.568;2023-02-13T10:35:16;20.03;;;8.97;;
6282;SDS011;3174;53.486;9.568;2023-02-13T10:37:46;20.77;;;10.10;;
6282;SDS011;3174;53.486;9.568;2023-02-13T10:40:19;24.87;;;10.63;;
6282;SDS011;3174;53.486;9.568;2023-02-13T10:42:50;21.37;;;10.27;;
6282;SDS011;3174;53.486;9.568;2023-02-13T10:45:25;21.27;;;9.43;;
6282;SDS011;3174;53.486;9.568;2023-02-13T10:48:13;17.53;;;8.93;;
6282;SDS011;3174;53.486;9.568;2023-02-13T10:50:47;17.53;;;8.37;;
6282;SDS011;3174;53.486;9.568;2023-02-13T10:53:24;18.30;;;9.23;;
6282;SDS011;3174;53.486;9.568;2023-02-13T10:56:10;20.20;;;8.83;;
6282;SDS011;3174;53.486;9.568;2023-02-13T10:58:47;20.07;;;9.00;;
6282;SDS011;3174;53.486;9.568;2023-02-13T11:01:22;18.57;;;8.60;;
6282;SDS011;3174;53.486;9.568;2023-02-13T11:04:02;19.63;;;9.37;;
6282;SDS011;3174;53.486;9.568;2023-02-13T11:06:49;17.10;;;9.30;;
6282;SDS011;3174;53.486;9.568;2023-02-13T11:09:19;18.67;;;8.10;;
6282;SDS011;3174;53.486;9.568;2023-02-13T11:11:47;21.43;;;9.33;;
6282;SDS011;3174;53.486;9.568;2023-02-13T11:14:16;17.23;;;9.07;;
6282;SDS011;3174;53.486;9.568;2023-02-13T11:17:11;21.77;;;11.33;;
6282;SDS011;3174;53.486;9.568;2023-02-13T11:19:47;16.07;;;9.47;;
6282;SDS011;3174;53.486;9.568;2023-02-13T11:22:25;15.50;;;8.50;;
6282;SDS011;3174;53.486;9.568;2023-02-13T11:24:55;17.33;;;8.60;;
6282;SDS011;3174;53.486;9.568;2023-02-13T11:27:25;19.37;;;9.23;;
6282;SDS011;3174;53.486;9.568;2023-02-13T11:29:55;20.17;;;9.23;;
6282;SDS011;3174;53.486;9.568;2023-02-13T11:32:25;18.93;;;9.40;;
6282;SDS011;3174;53.486;9.568;2023-02-13T11:34:56;17.17;;;8.10;;
6282;SDS011;3174;53.486;9.568;2023-02-13T11:37:26;15.80;;;7.63;;
6282;SDS011;3174;53.486;9.568;2023-02-13T11:39:56;18.60;;;9.37;;
6282;SDS011;3174;53.486;9.568;2023-02-13T11:42:26;16.50;;;7.87;;
6282;SDS011;3174;53.486;9.568;2023-02-13T11:44:58;18.10;;;8.70;;
6282;SDS011;3174;53.486;9.568;2023-02-13T11:47:35;17.77;;;8.33;;
6282;SDS011;3174;53.486;9.568;2023-02-13T11:50:21;16.80;;;8.43;;
6282;SDS011;3174;53.486;9.568;2023-02-13T11:52:53;16.87;;;8.13;;
6282;SDS011;3174;53.486;9.568;2023-02-13T11:55:24;18.07;;;9.30;;
6282;SDS011;3174;53.486;9.568;2023-02-13T11:57:55;18.53;;;9.23;;
6282;SDS011;3174;53.486;9.568;2023-02-13T12:00:26;17.77;;;8.13;;
6282;SDS011;3174;53.486;9.568;2023-02-13T12:02:59;18.87;;;9.03;;
6282;SDS011;3174;53.486;9.568;2023-02-13T12:05:29;20.60;;;10.20;;
6282;SDS011;3174;53.486;9.568;2023-02-13T12:07:58;14.63;;;7.50;;
6282;SDS011;3174;53.486;9.568;2023-02-13T12:10:28;16.97;;;9.20;;
6282;SDS011;3174;53.486;9.568;2023-02-13T12:12:58;16.40;;;8.60;;
6282;SDS011;3174;53.486;9.568;2023-02-13T12:15:31;17.93;;;8.90;;
6282;SDS011;3174;53.486;9.568;2023-02-13T12:18:04;19.83;;;9.30;;
6282;SDS011;3174;53.486;9.568;2023-02-13T12:20:42;20.53;;;9.03;;
6282;SDS011;3174;53.486;9.568;2023-02-13T12:23:21;20.70;;;10.07;;
6282;SDS011;3174;53.486;9.568;2023-02-13T12:26:06;17.40;;;8.97;;
6282;SDS011;3174;53.486;9.568;2023-02-13T12:28:45;17.07;;;8.83;;
6282;SDS011;3174;53.486;9.568;2023-02-13T12:34:38;14.90;;;7.80;;
6282;SDS011;3174;53.486;9.568;2023-02-13T12:40:29;18.33;;;8.93;;
6282;SDS011;3174;53.486;9.568;2023-02-13T12:43:16;18.87;;;8.60;;
6282;SDS011;3174;53.486;9.568;2023-02-13T12:46:13;18.90;;;8.30;;
6282;SDS011;3174;53.486;9.568;2023-02-13T12:48:45;18.10;;;8.50;;
6282;SDS011;3174;53.486;9.568;2023-02-13T12:51:22;18.67;;;9.03;;
6282;SDS011;3174;53.486;9.568;2023-02-13T12:54:01;18.43;;;9.07;;
6282;SDS011;3174;53.486;9.568;2023-02-13T12:56:46;19.40;;;9.93;;
6282;SDS011;3174;53.486;9.568;2023-02-13T12:59:21;21.60;;;8.70;;
6282;SDS011;3174;53.486;9.568;2023-02-13T13:02:12;18.47;;;9.77;;
6282;SDS011;3174;53.486;9.568;2023-02-13T13:04:59;19.73;;;9.80;;
6282;SDS011;3174;53.486;9.568;2023-02-13T13:10:37;22.17;;;9.00;;
6282;SDS011;3174;53.486;9.568;2023-02-13T13:13:17;21.70;;;8.90;;
6282;SDS011;3174;53.486;9.568;2023-02-13T13:15:51;16.33;;;8.60;;
6282;SDS011;3174;53.486;9.568;2023-02-13T13:18:25;18.10;;;8.83;;
6282;SDS011;3174;53.486;9.568;2023-02-13T13:21:02;23.00;;;10.20;;
6282;SDS011;3174;53.486;9.568;2023-02-13T13:23:35;22.43;;;10.03;;
6282;SDS011;3174;53.486;9.568;2023-02-13T13:26:12;20.10;;;9.60;;
6282;SDS011;3174;53.486;9.568;2023-02-13T13:28:47;19.97;;;9.10;;
6282;SDS011;3174;53.486;9.568;2023-02-13T13:31:17;18.27;;;8.70;;
6282;SDS011;3174;53.486;9.568;2023-02-13T13:33:46;17.07;;;8.83;;
6282;SDS011;3174;53.486;9.568;2023-02-13T13:36:17;20.83;;;10.27;;
6282;SDS011;3174;53.486;9.568;2023-02-13T13:38:51;15.50;;;8.43;;
6282;SDS011;3174;53.486;9.568;2023-02-13T13:41:29;21.57;;;9.63;;
6282;SDS011;3174;53.486;9.568;2023-02-13T13:44:04;16.70;;;8.70;;
6282;SDS011;3174;53.486;9.568;2023-02-13T13:46:45;23.23;;;10.03;;
6282;SDS011;3174;53.486;9.568;2023-02-13T13:49:25;20.13;;;9.23;;
6282;SDS011;3174;53.486;9.568;2023-02-13T13:52:07;17.93;;;8.80;;
6282;SDS011;3174;53.486;9.568;2023-02-13T13:54:36;20.03;;;10.03;;
6282;SDS011;3174;53.486;9.568;2023-02-13T13:57:12;20.47;;;9.50;;
6282;SDS011;3174;53.486;9.568;2023-02-13T14:02:43;20.30;;;9.77;;
6282;SDS011;3174;53.486;9.568;2023-02-13T14:05:21;21.10;;;10.00;;
6282;SDS011;3174;53.486;9.568;2023-02-13T14:07:54;21.40;;;10.33;;
6282;SDS011;3174;53.486;9.568;2023-02-13T14:13:32;18.33;;;8.63;;
6282;SDS011;3174;53.486;9.568;2023-02-13T14:16:02;22.07;;;10.27;;
6282;SDS011;3174;53.486;9.568;2023-02-13T14:18:31;16.97;;;7.93;;
6282;SDS011;3174;53.486;9.568;2023-02-13T14:21:00;17.93;;;8.43;;
6282;SDS011;3174;53.486;9.568;2023-02-13T14:23:29;20.57;;;8.73;;
6282;SDS011;3174;53.486;9.568;2023-02-13T14:29:00;18.83;;;9.03;;
6282;SDS011;3174;53.486;9.568;2023-02-13T14:31:39;21.17;;;9.17;;
6282;SDS011;3174;53.486;9.568;2023-02-13T14:34:16;15.43;;;7.70;;
6282;SDS011;3174;53.486;9.568;2023-02-13T14:36:57;17.27;;;8.33;;
6282;SDS011;3174;53.486;9.568;2023-02-13T14:42:54;14.37;;;7.43;;
6282;SDS011;3174;53.486;9.568;2023-02-13T14:45:26;14.43;;;7.33;;
6282;SDS011;3174;53.486;9.568;2023-02-13T14:47:58;17.57;;;8.10;;
6282;SDS011;3174;53.486;9.568;2023-02-13T14:50:33;18.07;;;8.33;;
6282;SDS011;3174;53.486;9.568;2023-02-13T14:53:08;15.70;;;7.93;;
6282;SDS011;3174;53.486;9.568;2023-02-13T14:55:44;22.53;;;9.10;;
6282;SDS011;3174;53.486;9.568;2023-02-13T14:58:14;17.13;;;8.60;;
6282;SDS011;3174;53.486;9.568;2023-02-13T15:00:52;20.67;;;9.17;;
6282;SDS011;3174;53.486;9.568;2023-02-13T15:03:26;19.80;;;8.77;;
6282;SDS011;3174;53.486;9.568;2023-02-13T15:05:56;16.33;;;7.60;;
6282;SDS011;3174;53.486;9.568;2023-02-13T15:08:28;18.60;;;9.93;;
6282;SDS011;3174;53.486;9.568;2023-02-13T15:10:59;20.83;;;9.87;;
6282;SDS011;3174;53.486;9.568;2023-02-13T15:13:30;16.43;;;7.47;;
6282;SDS011;3174;53.486;9.568;2023-02-13T15:16:01;15.70;;;8.00;;
6282;SDS011;3174;53.486;9.568;2023-02-13T15:18:32;26.17;;;10.27;;
6282;SDS011;3174;53.486;9.568;2023-02-13T15:21:03;19.77;;;9.60;;
6282;SDS011;3174;53.486;9.568;2023-02-13T15:23:32;25.17;;;10.60;;
6282;SDS011;3174;53.486;9.568;2023-02-13T15:26:02;21.60;;;11.30;;
6282;SDS011;3174;53.486;9.568;2023-02-13T15:28:31;17.83;;;9.03;;
6282;SDS011;3174;53.486;9.568;2023-02-13T15:31:02;19.30;;;8.93;;
6282;SDS011;3174;53.486;9.568;2023-02-13T15:33:32;16.60;;;8.93;;
6282;SDS011;3174;53.486;9.568;2023-02-13T15:36:04;21.20;;;9.40;;
6282;SDS011;3174;53.486;9.568;2023-02-13T15:38:33;14.90;;;8.27;;
6282;SDS011;3174;53.486;9.568;2023-02-13T15:41:04;23.33;;;9.27;;
6282;SDS011;3174;53.486;9.568;2023-02-13T15:43:35;19.03;;;8.37;;
6282;SDS011;3174;53.486;9.568;2023-02-13T15:46:07;20.73;;;9.60;;
6282;SDS011;3174;53.486;9.568;2023-02-13T15:48:45;16.77;;;8.33;;
6282;SDS011;3174;53.486;9.568;2023-02-13T15:51:17;22.10;;;9.67;;
6282;SDS011;3174;53.486;9.568;2023-02-13T15:53:49;20.27;;;8.97;;
6282;SDS011;3174;53.486;9.568;2023-02-13T15:56:17;21.43;;;10.13;;
6282;SDS011;3174;53.486;9.568;2023-02-13T15:58:46;21.67;;;10.43;;
6282;SDS011;3174;53.486;9.568;2023-02-13T16:01:15;15.50;;;8.10;;